sensor_id;sensor_type;location;lat;lon;timestamp;P1;durP1;ratioP1;P2;durP2;ratioP2
42742;SDS011;28397;44.552;-0.848;2024-01-16T00:00:56;34.85;;;29.23;;
42742;SDS011;28397;44.552;-0.848;2024-01-16T00:03:22;38.78;;;33.83;;
42742;SDS011;28397;44.552;-0.848;2024-01-16T00:05:47;44.03;;;39.30;;
42742;SDS011;28397;44.552;-0.848;2024-01-16T00:08:14;68.70;;;61.85;;
42742;SDS011;28397;44.552;-0.848;2024-01-16T00:10:39;43.40;;;38.58;;
42742;SDS011;28397;44.552;-0.848;2024-01-16T00:13:05;41.10;;;35.95;;
42742;SDS011;28397;44.552;-0.848;2024-01-16T00:15:30;44.42;;;39.20;;
42742;SDS011;28397;44.552;-0.848;2024-01-16T00:17:56;40.22;;;35.72;;
42742;SDS011;28397;44.552;-0.848;2024-01-16T00:20:22;39.85;;;34.88;;
42742;SDS011;28397;44.552;-0.848;2024-01-16T00:22:50;38.67;;;33.67;;
42742;SDS011;28397;44.552;-0.848;2024-01-16T00:25:16;38.05;;;31.90;;
42742;SDS011;28397;44.552;-0.848;2024-01-16T00:27:44;40.10;;;33.22;;
42742;SDS011;28397;44.552;-0.848;2024-01-16T00:30:11;46.50;;;39.60;;
42742;SDS011;28397;44.552;-0.848;2024-01-16T00:32:38;42.40;;;36.75;;
42742;SDS011;28397;44.552;-0.848;2024-01-16T00:35:04;40.10;;;34.65;;
42742;SDS011;28397;44.552;-0.848;2024-01-16T00:37:30;39.78;;;33.38;;
42742;SDS011;28397;44.552;-0.848;2024-01-16T00:39:56;41.88;;;33.35;;
42742;SDS011;28397;44.552;-0.848;2024-01-16T00:42:21;40.78;;;33.17;;
42742;SDS011;28397;44.552;-0.848;2024-01-16T00:44:47;39.35;;;31.48;;
42742;SDS011;28397;44.552;-0.848;2024-01-16T00:47:13;39.03;;;32.03;;
42742;SDS011;28397;44.552;-0.848;2024-01-16T00:49:38;40.47;;;33.20;;
42742;SDS011;28397;44.552;-0.848;2024-01-16T00:52:04;38.33;;;31.83;;
42742;SDS011;28397;44.552;-0.848;2024-01-16T00:54:31;36.80;;;30.45;;
42742;SDS011;28397;44.552;-0.848;2024-01-16T00:56:57;35.78;;;29.73;;
42742;SDS011;28397;44.552;-0.848;2024-01-16T00:59:25;51.30;;;45.83;;
42742;SDS011;28397;44.552;-0.848;2024-01-16T01:01:51;50.58;;;42.70;;
42742;SDS011;28397;44.552;-0.848;2024-01-16T01:04:16;44.83;;;37.53;;
42742;SDS011;28397;44.552;-0.848;2024-01-16T01:06:42;38.78;;;33.20;;
42742;SDS011;28397;44.552;-0.848;2024-01-16T01:09:08;40.67;;;33.88;;
42742;SDS011;28397;44.552;-0.848;2024-01-16T01:11:36;54.00;;;45.88;;
42742;SDS011;28397;44.552;-0.848;2024-01-16T01:14:03;46.70;;;38.03;;
42742;SDS011;28397;44.552;-0.848;2024-01-16T01:16:29;50.38;;;42.63;;
42742;SDS011;28397;44.552;-0.848;2024-01-16T01:18:54;47.63;;;41.08;;
42742;SDS011;28397;44.552;-0.848;2024-01-16T01:21:20;37.45;;;31.83;;
42742;SDS011;28397;44.552;-0.848;2024-01-16T01:23:46;41.45;;;36.97;;
42742;SDS011;28397;44.552;-0.848;2024-01-16T01:26:11;34.65;;;28.98;;
42742;SDS011;28397;44.552;-0.848;2024-01-16T01:28:42;31.48;;;27.58;;
42742;SDS011;28397;44.552;-0.848;2024-01-16T01:31:11;30.15;;;25.48;;
42742;SDS011;28397;44.552;-0.848;2024-01-16T01:33:37;28.92;;;24.58;;
42742;SDS011;28397;44.552;-0.848;2024-01-16T01:36:04;29.13;;;24.05;;
42742;SDS011;28397;44.552;-0.848;2024-01-16T01:38:30;25.20;;;22.55;;
42742;SDS011;28397;44.552;-0.848;2024-01-16T01:40:56;26.25;;;23.05;;
42742;SDS011;28397;44.552;-0.848;2024-01-16T01:43:23;26.08;;;23.27;;
42742;SDS011;28397;44.552;-0.848;2024-01-16T01:48:35;26.45;;;22.58;;
42742;SDS011;28397;44.552;-0.848;2024-01-16T01:51:05;25.45;;;22.75;;
42742;SDS011;28397;44.552;-0.848;2024-01-16T01:53:31;24.40;;;21.80;;
42742;SDS011;28397;44.552;-0.848;2024-01-16T01:56:01;25.98;;;22.77;;
42742;SDS011;28397;44.552;-0.848;2024-01-16T01:58:30;26.55;;;22.45;;
42742;SDS011;28397;44.552;-0.848;2024-01-16T02:00:57;26.17;;;23.35;;
42742;SDS011;28397;44.552;-0.848;2024-01-16T02:03:23;30.33;;;25.55;;
42742;SDS011;28397;44.552;-0.848;2024-01-16T02:05:55;28.08;;;25.10;;
42742;SDS011;28397;44.552;-0.848;2024-01-16T02:08:21;28.15;;;23.98;;
42742;SDS011;28397;44.552;-0.848;2024-01-16T02:10:47;26.17;;;23.45;;
42742;SDS011;28397;44.552;-0.848;2024-01-16T02:13:14;26.77;;;23.10;;
42742;SDS011;28397;44.552;-0.848;2024-01-16T02:15:43;27.50;;;24.23;;
42742;SDS011;28397;44.552;-0.848;2024-01-16T02:18:09;28.73;;;24.65;;
42742;SDS011;28397;44.552;-0.848;2024-01-16T02:20:34;31.23;;;25.00;;
42742;SDS011;28397;44.552;-0.848;2024-01-16T02:23:01;30.83;;;25.75;;
42742;SDS011;28397;44.552;-0.848;2024-01-16T02:25:29;32.42;;;25.90;;
42742;SDS011;28397;44.552;-0.848;2024-01-16T02:27:55;32.67;;;26.60;;
42742;SDS011;28397;44.552;-0.848;2024-01-16T02:30:21;31.75;;;26.33;;
42742;SDS011;28397;44.552;-0.848;2024-01-16T02:32:46;31.90;;;27.83;;
42742;SDS011;28397;44.552;-0.848;2024-01-16T02:35:12;41.70;;;32.97;;
42742;SDS011;28397;44.552;-0.848;2024-01-16T02:37:38;35.25;;;30.50;;
42742;SDS011;28397;44.552;-0.848;2024-01-16T02:40:04;38.95;;;28.80;;
42742;SDS011;28397;44.552;-0.848;2024-01-16T02:42:32;34.05;;;27.05;;
42742;SDS011;28397;44.552;-0.848;2024-01-16T02:44:58;32.35;;;26.85;;
42742;SDS011;28397;44.552;-0.848;2024-01-16T02:47:23;34.60;;;27.40;;
42742;SDS011;28397;44.552;-0.848;2024-01-16T02:49:49;35.95;;;27.00;;
42742;SDS011;28397;44.552;-0.848;2024-01-16T02:52:15;34.55;;;26.88;;
42742;SDS011;28397;44.552;-0.848;2024-01-16T02:54:41;34.42;;;27.83;;
42742;SDS011;28397;44.552;-0.848;2024-01-16T02:57:06;37.38;;;32.53;;
42742;SDS011;28397;44.552;-0.848;2024-01-16T02:59:32;36.65;;;29.50;;
42742;SDS011;28397;44.552;-0.848;2024-01-16T03:01:58;34.67;;;28.35;;
42742;SDS011;28397;44.552;-0.848;2024-01-16T03:04:23;38.70;;;28.75;;
42742;SDS011;28397;44.552;-0.848;2024-01-16T03:06:49;35.05;;;26.98;;
42742;SDS011;28397;44.552;-0.848;2024-01-16T03:09:15;34.20;;;28.13;;
42742;SDS011;28397;44.552;-0.848;2024-01-16T03:11:41;33.08;;;25.88;;
42742;SDS011;28397;44.552;-0.848;2024-01-16T03:14:06;37.17;;;28.77;;
42742;SDS011;28397;44.552;-0.848;2024-01-16T03:16:32;36.95;;;28.67;;
42742;SDS011;28397;44.552;-0.848;2024-01-16T03:18:58;39.15;;;28.33;;
42742;SDS011;28397;44.552;-0.848;2024-01-16T03:21:24;33.90;;;26.13;;
42742;SDS011;28397;44.552;-0.848;2024-01-16T03:23:49;34.17;;;25.83;;
42742;SDS011;28397;44.552;-0.848;2024-01-16T03:26:15;37.13;;;27.50;;
42742;SDS011;28397;44.552;-0.848;2024-01-16T03:28:41;32.00;;;25.80;;
42742;SDS011;28397;44.552;-0.848;2024-01-16T03:31:07;33.53;;;26.48;;
42742;SDS011;28397;44.552;-0.848;2024-01-16T03:33:33;32.50;;;25.50;;
42742;SDS011;28397;44.552;-0.848;2024-01-16T03:36:00;33.17;;;26.17;;
42742;SDS011;28397;44.552;-0.848;2024-01-16T03:38:26;32.38;;;24.90;;
42742;SDS011;28397;44.552;-0.848;2024-01-16T03:40:51;32.33;;;25.45;;
42742;SDS011;28397;44.552;-0.848;2024-01-16T03:43:17;34.03;;;25.08;;
42742;SDS011;28397;44.552;-0.848;2024-01-16T03:45:43;38.65;;;27.58;;
42742;SDS011;28397;44.552;-0.848;2024-01-16T03:48:09;40.83;;;30.35;;
42742;SDS011;28397;44.552;-0.848;2024-01-16T03:50:35;38.42;;;30.23;;
42742;SDS011;28397;44.552;-0.848;2024-01-16T03:53:01;40.33;;;28.60;;
42742;SDS011;28397;44.552;-0.848;2024-01-16T03:55:29;39.80;;;28.17;;
42742;SDS011;28397;44.552;-0.848;2024-01-16T03:57:55;43.90;;;28.33;;
42742;SDS011;28397;44.552;-0.848;2024-01-16T04:00:21;46.97;;;30.52;;
42742;SDS011;28397;44.552;-0.848;2024-01-16T04:02:47;48.00;;;29.38;;
42742;SDS011;28397;44.552;-0.848;2024-01-16T04:05:12;43.88;;;27.20;;
42742;SDS011;28397;44.552;-0.848;2024-01-16T04:07:38;47.17;;;28.70;;
42742;SDS011;28397;44.552;-0.848;2024-01-16T04:10:04;50.63;;;29.35;;
42742;SDS011;28397;44.552;-0.848;2024-01-16T04:12:32;50.05;;;32.53;;
42742;SDS011;28397;44.552;-0.848;2024-01-16T04:14:57;49.35;;;30.35;;
42742;SDS011;28397;44.552;-0.848;2024-01-16T04:17:23;45.40;;;29.80;;
42742;SDS011;28397;44.552;-0.848;2024-01-16T04:19:48;48.92;;;31.23;;
42742;SDS011;28397;44.552;-0.848;2024-01-16T04:22:14;48.80;;;30.85;;
42742;SDS011;28397;44.552;-0.848;2024-01-16T04:24:40;52.22;;;30.50;;
42742;SDS011;28397;44.552;-0.848;2024-01-16T04:27:05;56.08;;;38.38;;
42742;SDS011;28397;44.552;-0.848;2024-01-16T04:29:31;66.75;;;46.47;;
42742;SDS011;28397;44.552;-0.848;2024-01-16T04:31:57;57.88;;;37.25;;
42742;SDS011;28397;44.552;-0.848;2024-01-16T04:34:23;52.42;;;32.00;;
42742;SDS011;28397;44.552;-0.848;2024-01-16T04:36:48;57.40;;;33.83;;
42742;SDS011;28397;44.552;-0.848;2024-01-16T04:39:14;55.30;;;32.80;;
42742;SDS011;28397;44.552;-0.848;2024-01-16T04:41:40;56.70;;;32.65;;
42742;SDS011;28397;44.552;-0.848;2024-01-16T04:44:05;54.17;;;32.95;;
42742;SDS011;28397;44.552;-0.848;2024-01-16T04:46:31;63.60;;;35.28;;
42742;SDS011;28397;44.552;-0.848;2024-01-16T04:48:56;68.68;;;40.85;;
42742;SDS011;28397;44.552;-0.848;2024-01-16T04:51:22;58.38;;;34.35;;
42742;SDS011;28397;44.552;-0.848;2024-01-16T04:53:48;55.78;;;32.50;;
42742;SDS011;28397;44.552;-0.848;2024-01-16T04:56:13;58.20;;;32.67;;
42742;SDS011;28397;44.552;-0.848;2024-01-16T04:58:39;59.70;;;31.67;;
42742;SDS011;28397;44.552;-0.848;2024-01-16T05:01:04;56.67;;;34.08;;
42742;SDS011;28397;44.552;-0.848;2024-01-16T05:03:30;70.65;;;36.78;;
42742;SDS011;28397;44.552;-0.848;2024-01-16T05:05:56;62.97;;;37.22;;
42742;SDS011;28397;44.552;-0.848;2024-01-16T05:08:22;59.33;;;35.65;;
42742;SDS011;28397;44.552;-0.848;2024-01-16T05:10:48;56.08;;;33.22;;
42742;SDS011;28397;44.552;-0.848;2024-01-16T05:13:13;55.80;;;32.35;;
42742;SDS011;28397;44.552;-0.848;2024-01-16T05:15:40;58.53;;;32.72;;
42742;SDS011;28397;44.552;-0.848;2024-01-16T05:18:05;54.10;;;31.55;;
42742;SDS011;28397;44.552;-0.848;2024-01-16T05:20:31;53.65;;;31.77;;
42742;SDS011;28397;44.552;-0.848;2024-01-16T05:22:57;48.58;;;29.50;;
42742;SDS011;28397;44.552;-0.848;2024-01-16T05:25:23;53.90;;;31.27;;
42742;SDS011;28397;44.552;-0.848;2024-01-16T05:27:48;48.00;;;29.83;;
42742;SDS011;28397;44.552;-0.848;2024-01-16T05:30:17;48.25;;;27.55;;
42742;SDS011;28397;44.552;-0.848;2024-01-16T05:32:43;41.97;;;26.38;;
42742;SDS011;28397;44.552;-0.848;2024-01-16T05:35:08;43.90;;;25.75;;
42742;SDS011;28397;44.552;-0.848;2024-01-16T05:37:37;43.15;;;25.58;;
42742;SDS011;28397;44.552;-0.848;2024-01-16T05:40:02;39.70;;;24.45;;
42742;SDS011;28397;44.552;-0.848;2024-01-16T05:42:29;38.03;;;24.95;;
42742;SDS011;28397;44.552;-0.848;2024-01-16T05:44:55;39.95;;;24.50;;
42742;SDS011;28397;44.552;-0.848;2024-01-16T05:47:20;35.97;;;23.17;;
42742;SDS011;28397;44.552;-0.848;2024-01-16T05:49:49;35.42;;;22.52;;
42742;SDS011;28397;44.552;-0.848;2024-01-16T05:52:14;38.03;;;23.50;;
42742;SDS011;28397;44.552;-0.848;2024-01-16T05:54:40;39.15;;;23.60;;
42742;SDS011;28397;44.552;-0.848;2024-01-16T05:57:05;36.72;;;23.70;;
42742;SDS011;28397;44.552;-0.848;2024-01-16T05:59:31;39.58;;;23.73;;
42742;SDS011;28397;44.552;-0.848;2024-01-16T06:01:57;37.55;;;24.00;;
42742;SDS011;28397;44.552;-0.848;2024-01-16T06:04:22;36.28;;;23.83;;
42742;SDS011;28397;44.552;-0.848;2024-01-16T06:06:48;36.03;;;23.17;;
42742;SDS011;28397;44.552;-0.848;2024-01-16T06:09:14;35.58;;;23.20;;
42742;SDS011;28397;44.552;-0.848;2024-01-16T06:11:39;34.45;;;22.60;;
42742;SDS011;28397;44.552;-0.848;2024-01-16T06:14:08;34.75;;;22.88;;
42742;SDS011;28397;44.552;-0.848;2024-01-16T06:16:35;38.08;;;22.85;;
42742;SDS011;28397;44.552;-0.848;2024-01-16T06:19:01;33.05;;;22.50;;
42742;SDS011;28397;44.552;-0.848;2024-01-16T06:21:26;35.95;;;22.20;;
42742;SDS011;28397;44.552;-0.848;2024-01-16T06:23:52;31.55;;;22.02;;
42742;SDS011;28397;44.552;-0.848;2024-01-16T06:26:18;37.75;;;23.08;;
42742;SDS011;28397;44.552;-0.848;2024-01-16T06:28:44;35.22;;;21.75;;
42742;SDS011;28397;44.552;-0.848;2024-01-16T06:31:10;36.58;;;22.10;;
42742;SDS011;28397;44.552;-0.848;2024-01-16T06:33:35;33.65;;;22.98;;
42742;SDS011;28397;44.552;-0.848;2024-01-16T06:36:02;34.85;;;23.38;;
42742;SDS011;28397;44.552;-0.848;2024-01-16T06:38:31;34.15;;;23.52;;
42742;SDS011;28397;44.552;-0.848;2024-01-16T06:40:57;34.55;;;23.52;;
42742;SDS011;28397;44.552;-0.848;2024-01-16T06:43:23;35.63;;;23.27;;
42742;SDS011;28397;44.552;-0.848;2024-01-16T06:45:49;30.83;;;22.13;;
42742;SDS011;28397;44.552;-0.848;2024-01-16T06:48:14;29.63;;;22.10;;
42742;SDS011;28397;44.552;-0.848;2024-01-16T06:50:41;29.52;;;20.75;;
42742;SDS011;28397;44.552;-0.848;2024-01-16T06:53:06;28.08;;;20.70;;
42742;SDS011;28397;44.552;-0.848;2024-01-16T06:55:32;26.23;;;20.75;;
42742;SDS011;28397;44.552;-0.848;2024-01-16T06:57:58;27.55;;;20.20;;
42742;SDS011;28397;44.552;-0.848;2024-01-16T07:00:23;27.08;;;19.83;;
42742;SDS011;28397;44.552;-0.848;2024-01-16T07:02:51;24.77;;;19.23;;
42742;SDS011;28397;44.552;-0.848;2024-01-16T07:05:17;26.42;;;19.20;;
42742;SDS011;28397;44.552;-0.848;2024-01-16T07:07:43;28.65;;;19.17;;
42742;SDS011;28397;44.552;-0.848;2024-01-16T07:10:08;23.02;;;18.83;;
42742;SDS011;28397;44.552;-0.848;2024-01-16T07:12:38;23.48;;;18.88;;
42742;SDS011;28397;44.552;-0.848;2024-01-16T07:15:05;25.58;;;18.75;;
42742;SDS011;28397;44.552;-0.848;2024-01-16T07:17:31;25.38;;;18.52;;
42742;SDS011;28397;44.552;-0.848;2024-01-16T07:19:56;22.23;;;17.20;;
42742;SDS011;28397;44.552;-0.848;2024-01-16T07:22:23;21.88;;;15.98;;
42742;SDS011;28397;44.552;-0.848;2024-01-16T07:24:49;20.02;;;14.63;;
42742;SDS011;28397;44.552;-0.848;2024-01-16T07:27:15;16.83;;;11.85;;
42742;SDS011;28397;44.552;-0.848;2024-01-16T07:29:40;14.57;;;11.65;;
42742;SDS011;28397;44.552;-0.848;2024-01-16T07:32:06;13.73;;;10.00;;
42742;SDS011;28397;44.552;-0.848;2024-01-16T07:34:32;14.75;;;10.20;;
42742;SDS011;28397;44.552;-0.848;2024-01-16T07:36:59;13.75;;;9.35;;
42742;SDS011;28397;44.552;-0.848;2024-01-16T07:39:24;14.80;;;9.90;;
42742;SDS011;28397;44.552;-0.848;2024-01-16T07:41:50;15.25;;;9.68;;
42742;SDS011;28397;44.552;-0.848;2024-01-16T07:44:15;13.68;;;10.27;;
42742;SDS011;28397;44.552;-0.848;2024-01-16T07:46:41;14.18;;;9.32;;
42742;SDS011;28397;44.552;-0.848;2024-01-16T07:49:07;14.80;;;9.30;;
42742;SDS011;28397;44.552;-0.848;2024-01-16T07:51:32;11.77;;;8.95;;
42742;SDS011;28397;44.552;-0.848;2024-01-16T07:54:08;13.13;;;8.20;;
42742;SDS011;28397;44.552;-0.848;2024-01-16T07:56:35;11.70;;;8.27;;
42742;SDS011;28397;44.552;-0.848;2024-01-16T07:59:01;9.95;;;7.93;;
42742;SDS011;28397;44.552;-0.848;2024-01-16T08:01:27;10.45;;;7.10;;
42742;SDS011;28397;44.552;-0.848;2024-01-16T08:03:57;11.30;;;7.65;;
42742;SDS011;28397;44.552;-0.848;2024-01-16T08:06:23;10.07;;;7.13;;
42742;SDS011;28397;44.552;-0.848;2024-01-16T08:08:49;11.07;;;7.63;;
42742;SDS011;28397;44.552;-0.848;2024-01-16T08:11:15;11.80;;;7.03;;
42742;SDS011;28397;44.552;-0.848;2024-01-16T08:13:42;11.30;;;7.13;;
42742;SDS011;28397;44.552;-0.848;2024-01-16T08:16:09;10.82;;;7.18;;
42742;SDS011;28397;44.552;-0.848;2024-01-16T08:18:34;10.55;;;6.32;;
42742;SDS011;28397;44.552;-0.848;2024-01-16T08:21:00;10.45;;;6.72;;
42742;SDS011;28397;44.552;-0.848;2024-01-16T08:23:26;9.95;;;6.60;;
42742;SDS011;28397;44.552;-0.848;2024-01-16T08:25:52;11.00;;;6.07;;
42742;SDS011;28397;44.552;-0.848;2024-01-16T08:28:17;11.15;;;5.93;;
42742;SDS011;28397;44.552;-0.848;2024-01-16T08:30:43;11.50;;;5.88;;
42742;SDS011;28397;44.552;-0.848;2024-01-16T08:33:09;9.95;;;5.47;;
42742;SDS011;28397;44.552;-0.848;2024-01-16T08:35:36;10.75;;;6.05;;
42742;SDS011;28397;44.552;-0.848;2024-01-16T08:38:02;15.93;;;6.88;;
42742;SDS011;28397;44.552;-0.848;2024-01-16T08:40:29;12.80;;;5.60;;
42742;SDS011;28397;44.552;-0.848;2024-01-16T08:42:55;12.82;;;6.22;;
42742;SDS011;28397;44.552;-0.848;2024-01-16T08:45:21;13.82;;;6.97;;
42742;SDS011;28397;44.552;-0.848;2024-01-16T08:47:47;13.55;;;7.93;;
42742;SDS011;28397;44.552;-0.848;2024-01-16T08:50:12;17.83;;;9.13;;
42742;SDS011;28397;44.552;-0.848;2024-01-16T08:52:39;13.90;;;7.53;;
42742;SDS011;28397;44.552;-0.848;2024-01-16T08:55:05;12.77;;;5.90;;
42742;SDS011;28397;44.552;-0.848;2024-01-16T08:57:31;11.60;;;5.10;;
42742;SDS011;28397;44.552;-0.848;2024-01-16T08:59:56;11.90;;;5.00;;
42742;SDS011;28397;44.552;-0.848;2024-01-16T09:02:22;9.15;;;4.10;;
42742;SDS011;28397;44.552;-0.848;2024-01-16T09:04:49;9.88;;;3.92;;
42742;SDS011;28397;44.552;-0.848;2024-01-16T09:07:15;7.13;;;3.38;;
42742;SDS011;28397;44.552;-0.848;2024-01-16T09:09:42;10.05;;;3.40;;
42742;SDS011;28397;44.552;-0.848;2024-01-16T09:12:10;9.48;;;3.30;;
42742;SDS011;28397;44.552;-0.848;2024-01-16T09:14:36;7.03;;;3.13;;
42742;SDS011;28397;44.552;-0.848;2024-01-16T09:17:02;7.25;;;3.28;;
42742;SDS011;28397;44.552;-0.848;2024-01-16T09:19:29;10.63;;;4.15;;
42742;SDS011;28397;44.552;-0.848;2024-01-16T09:21:55;8.63;;;3.22;;
42742;SDS011;28397;44.552;-0.848;2024-01-16T09:24:21;13.68;;;4.00;;
42742;SDS011;28397;44.552;-0.848;2024-01-16T09:26:47;10.25;;;3.60;;
42742;SDS011;28397;44.552;-0.848;2024-01-16T09:29:12;9.43;;;2.90;;
42742;SDS011;28397;44.552;-0.848;2024-01-16T09:31:39;11.20;;;3.33;;
42742;SDS011;28397;44.552;-0.848;2024-01-16T09:34:05;9.00;;;2.78;;
42742;SDS011;28397;44.552;-0.848;2024-01-16T09:36:31;10.63;;;3.53;;
42742;SDS011;28397;44.552;-0.848;2024-01-16T09:38:57;9.32;;;2.20;;
42742;SDS011;28397;44.552;-0.848;2024-01-16T09:41:23;10.68;;;2.92;;
42742;SDS011;28397;44.552;-0.848;2024-01-16T09:43:49;10.75;;;3.00;;
42742;SDS011;28397;44.552;-0.848;2024-01-16T09:46:16;10.43;;;2.88;;
42742;SDS011;28397;44.552;-0.848;2024-01-16T09:48:44;14.95;;;3.92;;
42742;SDS011;28397;44.552;-0.848;2024-01-16T09:51:12;9.90;;;3.78;;
42742;SDS011;28397;44.552;-0.848;2024-01-16T09:53:41;11.07;;;3.50;;
42742;SDS011;28397;44.552;-0.848;2024-01-16T09:56:10;10.93;;;2.67;;
42742;SDS011;28397;44.552;-0.848;2024-01-16T09:58:41;9.07;;;3.90;;
42742;SDS011;28397;44.552;-0.848;2024-01-16T10:01:08;10.77;;;4.50;;
42742;SDS011;28397;44.552;-0.848;2024-01-16T10:03:34;10.60;;;3.60;;
42742;SDS011;28397;44.552;-0.848;2024-01-16T10:06:02;11.48;;;2.80;;
42742;SDS011;28397;44.552;-0.848;2024-01-16T10:08:31;10.80;;;2.50;;
42742;SDS011;28397;44.552;-0.848;2024-01-16T10:10:57;8.38;;;2.40;;
42742;SDS011;28397;44.552;-0.848;2024-01-16T10:13:23;9.88;;;2.58;;
42742;SDS011;28397;44.552;-0.848;2024-01-16T10:15:49;6.90;;;2.40;;
42742;SDS011;28397;44.552;-0.848;2024-01-16T10:18:28;9.48;;;2.25;;
42742;SDS011;28397;44.552;-0.848;2024-01-16T10:20:58;9.05;;;2.13;;
42742;SDS011;28397;44.552;-0.848;2024-01-16T10:23:28;7.80;;;2.63;;
42742;SDS011;28397;44.552;-0.848;2024-01-16T10:26:11;12.40;;;2.70;;
42742;SDS011;28397;44.552;-0.848;2024-01-16T10:28:40;12.35;;;2.97;;
42742;SDS011;28397;44.552;-0.848;2024-01-16T10:31:08;9.38;;;2.55;;
42742;SDS011;28397;44.552;-0.848;2024-01-16T10:33:41;10.18;;;2.17;;
42742;SDS011;28397;44.552;-0.848;2024-01-16T10:36:07;11.10;;;2.83;;
42742;SDS011;28397;44.552;-0.848;2024-01-16T10:38:44;8.65;;;2.50;;
42742;SDS011;28397;44.552;-0.848;2024-01-16T10:41:14;9.90;;;2.55;;
42742;SDS011;28397;44.552;-0.848;2024-01-16T10:43:42;10.40;;;2.97;;
42742;SDS011;28397;44.552;-0.848;2024-01-16T10:46:18;10.77;;;2.20;;
42742;SDS011;28397;44.552;-0.848;2024-01-16T10:48:44;11.95;;;2.40;;
42742;SDS011;28397;44.552;-0.848;2024-01-16T10:51:23;7.72;;;2.33;;
42742;SDS011;28397;44.552;-0.848;2024-01-16T10:53:49;13.05;;;2.75;;
42742;SDS011;28397;44.552;-0.848;2024-01-16T10:56:19;9.68;;;2.10;;
42742;SDS011;28397;44.552;-0.848;2024-01-16T10:58:44;8.23;;;2.15;;
42742;SDS011;28397;44.552;-0.848;2024-01-16T11:01:16;10.02;;;2.55;;
42742;SDS011;28397;44.552;-0.848;2024-01-16T11:06:16;11.73;;;2.40;;
42742;SDS011;28397;44.552;-0.848;2024-01-16T11:08:42;10.07;;;2.25;;
42742;SDS011;28397;44.552;-0.848;2024-01-16T11:11:12;8.43;;;2.15;;
42742;SDS011;28397;44.552;-0.848;2024-01-16T11:13:38;9.68;;;2.30;;
42742;SDS011;28397;44.552;-0.848;2024-01-16T11:16:06;8.90;;;2.22;;
42742;SDS011;28397;44.552;-0.848;2024-01-16T11:18:35;8.18;;;2.28;;
42742;SDS011;28397;44.552;-0.848;2024-01-16T11:21:01;21.50;;;9.73;;
42742;SDS011;28397;44.552;-0.848;2024-01-16T11:23:30;218.07;;;110.35;;
42742;SDS011;28397;44.552;-0.848;2024-01-16T11:25:56;94.10;;;49.85;;
42742;SDS011;28397;44.552;-0.848;2024-01-16T11:28:21;193.40;;;98.68;;
42742;SDS011;28397;44.552;-0.848;2024-01-16T11:30:54;101.63;;;50.17;;
42742;SDS011;28397;44.552;-0.848;2024-01-16T11:35:59;111.95;;;57.15;;
42742;SDS011;28397;44.552;-0.848;2024-01-16T11:38:25;34.90;;;19.83;;
42742;SDS011;28397;44.552;-0.848;2024-01-16T11:40:52;82.25;;;43.78;;
42742;SDS011;28397;44.552;-0.848;2024-01-16T11:46:05;11.18;;;4.65;;
42742;SDS011;28397;44.552;-0.848;2024-01-16T11:48:32;10.25;;;2.92;;
42742;SDS011;28397;44.552;-0.848;2024-01-16T11:50:58;6.32;;;1.70;;
42742;SDS011;28397;44.552;-0.848;2024-01-16T11:58:40;6.43;;;1.70;;
42742;SDS011;28397;44.552;-0.848;2024-01-16T12:01:32;6.95;;;1.77;;
42742;SDS011;28397;44.552;-0.848;2024-01-16T12:04:02;6.95;;;1.80;;
42742;SDS011;28397;44.552;-0.848;2024-01-16T12:06:34;8.98;;;1.70;;
42742;SDS011;28397;44.552;-0.848;2024-01-16T12:09:13;6.25;;;1.73;;
42742;SDS011;28397;44.552;-0.848;2024-01-16T12:11:40;7.47;;;1.90;;
42742;SDS011;28397;44.552;-0.848;2024-01-16T12:14:10;6.20;;;1.90;;
42742;SDS011;28397;44.552;-0.848;2024-01-16T12:16:39;8.32;;;2.05;;
42742;SDS011;28397;44.552;-0.848;2024-01-16T12:19:08;6.18;;;1.70;;
42742;SDS011;28397;44.552;-0.848;2024-01-16T12:21:35;7.78;;;1.90;;
42742;SDS011;28397;44.552;-0.848;2024-01-16T12:24:08;9.40;;;1.80;;
42742;SDS011;28397;44.552;-0.848;2024-01-16T12:26:33;8.75;;;2.00;;
42742;SDS011;28397;44.552;-0.848;2024-01-16T12:28:59;9.20;;;2.17;;
42742;SDS011;28397;44.552;-0.848;2024-01-16T12:31:25;10.35;;;2.30;;
42742;SDS011;28397;44.552;-0.848;2024-01-16T12:33:52;6.75;;;1.88;;
42742;SDS011;28397;44.552;-0.848;2024-01-16T12:36:18;7.38;;;2.08;;
42742;SDS011;28397;44.552;-0.848;2024-01-16T12:38:43;6.88;;;1.98;;
42742;SDS011;28397;44.552;-0.848;2024-01-16T12:41:09;6.55;;;1.85;;
42742;SDS011;28397;44.552;-0.848;2024-01-16T12:43:36;6.65;;;1.60;;
42742;SDS011;28397;44.552;-0.848;2024-01-16T12:46:02;6.13;;;1.45;;
42742;SDS011;28397;44.552;-0.848;2024-01-16T12:48:28;5.47;;;1.30;;
42742;SDS011;28397;44.552;-0.848;2024-01-16T12:51:00;7.13;;;1.45;;
42742;SDS011;28397;44.552;-0.848;2024-01-16T12:53:27;8.23;;;1.80;;
42742;SDS011;28397;44.552;-0.848;2024-01-16T12:56:00;7.32;;;1.58;;
42742;SDS011;28397;44.552;-0.848;2024-01-16T12:58:32;6.03;;;1.60;;
42742;SDS011;28397;44.552;-0.848;2024-01-16T13:01:20;6.28;;;1.40;;
42742;SDS011;28397;44.552;-0.848;2024-01-16T13:03:49;5.78;;;1.42;;
42742;SDS011;28397;44.552;-0.848;2024-01-16T13:06:19;7.28;;;1.98;;
42742;SDS011;28397;44.552;-0.848;2024-01-16T13:08:49;5.53;;;1.67;;
42742;SDS011;28397;44.552;-0.848;2024-01-16T13:11:15;4.78;;;1.40;;
42742;SDS011;28397;44.552;-0.848;2024-01-16T13:13:45;6.07;;;1.60;;
42742;SDS011;28397;44.552;-0.848;2024-01-16T13:16:13;4.93;;;2.05;;
42742;SDS011;28397;44.552;-0.848;2024-01-16T13:18:39;6.40;;;1.73;;
42742;SDS011;28397;44.552;-0.848;2024-01-16T13:21:04;6.22;;;1.88;;
42742;SDS011;28397;44.552;-0.848;2024-01-16T13:23:30;4.75;;;1.55;;
42742;SDS011;28397;44.552;-0.848;2024-01-16T13:25:56;6.80;;;1.80;;
42742;SDS011;28397;44.552;-0.848;2024-01-16T13:28:25;4.88;;;2.00;;
42742;SDS011;28397;44.552;-0.848;2024-01-16T13:30:52;6.32;;;2.10;;
42742;SDS011;28397;44.552;-0.848;2024-01-16T13:33:18;5.00;;;1.80;;
42742;SDS011;28397;44.552;-0.848;2024-01-16T13:35:44;5.97;;;2.20;;
42742;SDS011;28397;44.552;-0.848;2024-01-16T13:38:14;5.53;;;2.30;;
42742;SDS011;28397;44.552;-0.848;2024-01-16T13:40:44;7.45;;;1.92;;
42742;SDS011;28397;44.552;-0.848;2024-01-16T13:43:10;4.07;;;1.50;;
42742;SDS011;28397;44.552;-0.848;2024-01-16T13:45:36;4.45;;;1.40;;
42742;SDS011;28397;44.552;-0.848;2024-01-16T13:48:03;6.55;;;1.63;;
42742;SDS011;28397;44.552;-0.848;2024-01-16T13:50:31;3.80;;;1.40;;
42742;SDS011;28397;44.552;-0.848;2024-01-16T13:52:58;5.25;;;1.83;;
42742;SDS011;28397;44.552;-0.848;2024-01-16T13:55:24;6.20;;;1.42;;
42742;SDS011;28397;44.552;-0.848;2024-01-16T13:57:49;8.15;;;1.90;;
42742;SDS011;28397;44.552;-0.848;2024-01-16T14:00:15;4.20;;;1.38;;
42742;SDS011;28397;44.552;-0.848;2024-01-16T14:02:42;5.90;;;2.00;;
42742;SDS011;28397;44.552;-0.848;2024-01-16T14:05:16;6.95;;;1.73;;
42742;SDS011;28397;44.552;-0.848;2024-01-16T14:07:43;7.10;;;2.20;;
42742;SDS011;28397;44.552;-0.848;2024-01-16T14:10:11;5.38;;;1.60;;
42742;SDS011;28397;44.552;-0.848;2024-01-16T14:12:38;6.70;;;2.17;;
42742;SDS011;28397;44.552;-0.848;2024-01-16T14:15:13;4.78;;;1.50;;
42742;SDS011;28397;44.552;-0.848;2024-01-16T14:17:49;4.95;;;1.65;;
42742;SDS011;28397;44.552;-0.848;2024-01-16T14:20:19;5.32;;;1.63;;
42742;SDS011;28397;44.552;-0.848;2024-01-16T14:22:48;4.47;;;1.40;;
42742;SDS011;28397;44.552;-0.848;2024-01-16T14:25:14;4.82;;;1.50;;
42742;SDS011;28397;44.552;-0.848;2024-01-16T14:27:44;8.00;;;1.50;;
42742;SDS011;28397;44.552;-0.848;2024-01-16T14:30:12;7.88;;;1.58;;
42742;SDS011;28397;44.552;-0.848;2024-01-16T14:32:43;5.35;;;1.58;;